createdAt,value
2022-12-29T00:00:18.307Z,2.84
2022-12-29T00:02:45.449Z,2.81
2022-12-29T00:05:12.579Z,2.81
2022-12-29T00:07:39.730Z,2.83
2022-12-29T00:10:07.281Z,2.77
2022-12-29T00:12:54.256Z,2.75
2022-12-29T00:15:39.530Z,2.72
2022-12-29T00:18:08.005Z,2.71
2022-12-29T00:20:57.556Z,2.70
2022-12-29T00:23:43.402Z,2.68
2022-12-29T00:26:33.652Z,2.66
2022-12-29T00:29:19.505Z,2.67
2022-12-29T00:32:04.920Z,2.67
2022-12-29T00:34:50.403Z,2.62
2022-12-29T00:37:18.118Z,2.62
2022-12-29T00:40:03.682Z,2.56
2022-12-29T00:42:50.606Z,2.54
2022-12-29T00:45:17.617Z,2.55
2022-12-29T00:47:45.160Z,2.50
2022-12-29T00:50:12.128Z,2.48
2022-12-29T00:52:39.061Z,2.48
2022-12-29T00:55:06.451Z,2.49
2022-12-29T00:57:34.067Z,2.48
2022-12-29T01:00:01.229Z,2.51
2022-12-29T01:02:30.375Z,2.52
2022-12-29T01:04:57.519Z,2.55
2022-12-29T01:07:24.392Z,2.54
2022-12-29T01:10:10.017Z,2.54
2022-12-29T01:12:43.066Z,2.53
2022-12-29T01:15:15.308Z,2.51
2022-12-29T01:17:42.734Z,2.49
2022-12-29T01:20:10.336Z,2.45
2022-12-29T01:22:37.471Z,2.40
2022-12-29T01:25:05.377Z,2.28
2022-12-29T01:27:32.476Z,2.21
2022-12-29T01:29:59.612Z,2.21
2022-12-29T01:32:26.578Z,2.17
2022-12-29T01:34:53.562Z,2.09
2022-12-29T01:37:20.562Z,1.99
2022-12-29T01:39:47.586Z,2.03
2022-12-29T01:42:19.534Z,1.99
2022-12-29T01:45:09.466Z,1.99
2022-12-29T01:47:42.704Z,1.95
2022-12-29T01:50:28.678Z,2.05
2022-12-29T01:53:08.930Z,2.09
2022-12-29T01:55:44.685Z,2.15
2022-12-29T01:58:15.977Z,2.19
2022-12-29T02:00:43.085Z,2.24
2022-12-29T02:03:11.543Z,2.19
2022-12-29T02:05:52.847Z,2.21
2022-12-29T02:08:23.719Z,2.16
2022-12-29T02:10:50.853Z,2.16
2022-12-29T02:13:21.414Z,2.17
2022-12-29T02:16:10.384Z,2.17
2022-12-29T02:18:57.916Z,2.17
2022-12-29T02:21:34.125Z,2.13
2022-12-29T02:24:39.283Z,2.03
2022-12-29T02:27:43.666Z,2.02
2022-12-29T02:30:18.510Z,2.00
2022-12-29T02:32:48.512Z,2.00
2022-12-29T02:35:27.085Z,2.01
2022-12-29T02:38:01.682Z,2.00
2022-12-29T02:40:43.773Z,2.00
2022-12-29T02:43:22.837Z,2.01
2022-12-29T02:46:05.695Z,2.04
2022-12-29T02:48:55.666Z,2.06
2022-12-29T02:51:37.147Z,2.02
2022-12-29T02:54:23.347Z,1.99
2022-12-29T02:56:50.773Z,1.99
2022-12-29T02:59:18.625Z,1.99
2022-12-29T03:02:18.929Z,2.02
2022-12-29T03:05:06.555Z,2.04
2022-12-29T03:08:08.253Z,2.03
2022-12-29T03:10:45.726Z,2.04
2022-12-29T03:13:55.625Z,2.04
2022-12-29T03:16:43.679Z,2.05
2022-12-29T03:19:21.372Z,2.05
2022-12-29T03:22:14.627Z,2.03
2022-12-29T03:24:48.977Z,2.01
2022-12-29T03:27:24.388Z,2.00
2022-12-29T03:29:56.268Z,1.95
2022-12-29T03:32:26.968Z,1.95
2022-12-29T03:34:56.105Z,1.99
2022-12-29T03:37:27.327Z,1.99
2022-12-29T03:39:54.390Z,1.98
2022-12-29T03:42:25.128Z,1.93
2022-12-29T03:44:57.505Z,1.89
2022-12-29T03:47:25.847Z,1.91
2022-12-29T03:49:53.007Z,1.88
2022-12-29T03:52:20.493Z,1.86
2022-12-29T03:54:48.465Z,1.83
2022-12-29T03:57:15.586Z,1.80
2022-12-29T04:00:06.808Z,1.75
2022-12-29T04:02:42.556Z,1.75
2022-12-29T04:05:13.785Z,1.72
2022-12-29T04:07:41.486Z,1.70
2022-12-29T04:10:09.277Z,1.70
2022-12-29T04:12:36.873Z,1.61
2022-12-29T04:15:04.204Z,1.62
2022-12-29T04:17:31.786Z,1.57
2022-12-29T04:20:18.705Z,1.57
2022-12-29T04:22:45.903Z,1.54
2022-12-29T04:25:13.567Z,1.54
2022-12-29T04:27:43.082Z,1.51
2022-12-29T04:30:36.309Z,1.42
2022-12-29T04:33:24.225Z,1.35
2022-12-29T04:35:51.696Z,1.29
2022-12-29T04:38:18.675Z,1.28
2022-12-29T04:40:48.222Z,1.34
2022-12-29T04:43:17.809Z,1.22
2022-12-29T04:46:11.075Z,1.23
2022-12-29T04:48:46.371Z,1.25
2022-12-29T04:51:32.771Z,1.25
2022-12-29T04:54:00.570Z,1.27
2022-12-29T04:56:28.867Z,1.25
2022-12-29T04:58:55.935Z,1.26
2022-12-29T05:01:23.156Z,1.25
2022-12-29T05:03:52.501Z,1.27
2022-12-29T05:06:19.608Z,1.31
2022-12-29T05:08:46.703Z,1.33
2022-12-29T05:11:13.886Z,1.35
2022-12-29T05:13:41.094Z,1.31
2022-12-29T05:16:09.229Z,1.30
2022-12-29T05:18:36.542Z,1.35
2022-12-29T05:21:04.376Z,1.14
2022-12-29T05:23:31.619Z,1.16
2022-12-29T05:26:06.177Z,1.16
2022-12-29T05:28:52.151Z,1.16
2022-12-29T05:31:20.384Z,1.18
2022-12-29T05:33:48.701Z,1.19
2022-12-29T05:36:15.977Z,1.15
2022-12-29T05:38:48.182Z,1.18
2022-12-29T05:41:15.747Z,1.21
2022-12-29T05:44:01.937Z,1.22
2022-12-29T05:46:29.534Z,1.25
2022-12-29T05:49:19.977Z,1.27
2022-12-29T05:52:06.499Z,1.30
2022-12-29T05:54:34.376Z,1.34
2022-12-29T05:57:02.945Z,1.34
2022-12-29T05:59:31.058Z,1.35
2022-12-29T06:01:58.561Z,1.34
2022-12-29T06:04:26.263Z,1.34
2022-12-29T06:06:53.507Z,1.35
2022-12-29T06:09:29.671Z,1.36
2022-12-29T06:11:57.314Z,1.37
2022-12-29T06:14:24.501Z,1.33
2022-12-29T06:16:52.070Z,1.33
2022-12-29T06:19:19.217Z,1.25
2022-12-29T06:21:46.819Z,1.23
2022-12-29T06:24:14.017Z,1.22
2022-12-29T06:26:41.498Z,1.18
2022-12-29T06:29:09.582Z,1.15
2022-12-29T06:31:36.929Z,1.16
2022-12-29T06:34:08.278Z,1.19
2022-12-29T06:36:37.335Z,1.21
2022-12-29T06:39:05.417Z,1.23
2022-12-29T06:41:33.018Z,1.24
2022-12-29T06:44:20.783Z,1.28
2022-12-29T06:46:53.897Z,1.29
2022-12-29T06:49:21.177Z,1.32
2022-12-29T06:51:48.389Z,1.34
2022-12-29T06:54:15.821Z,1.43
2022-12-29T06:56:43.745Z,1.50
2022-12-29T06:59:11.552Z,1.56
2022-12-29T07:01:38.920Z,1.63
2022-12-29T07:04:06.379Z,1.71
2022-12-29T07:06:33.539Z,1.80
2022-12-29T07:09:00.978Z,1.88
2022-12-29T07:11:28.140Z,1.95
2022-12-29T07:13:55.417Z,2.00
2022-12-29T07:16:22.712Z,2.08
2022-12-29T07:18:50.058Z,2.18
2022-12-29T07:21:17.817Z,2.27
2022-12-29T07:23:45.221Z,2.40
2022-12-29T07:26:14.252Z,2.49
2022-12-29T07:28:43.025Z,2.59
2022-12-29T07:31:21.145Z,2.66
2022-12-29T07:33:49.115Z,2.79
2022-12-29T07:36:17.023Z,2.87
2022-12-29T07:38:44.574Z,2.99
2022-12-29T07:41:11.659Z,2.98
2022-12-29T07:43:39.137Z,3.07
2022-12-29T07:46:55.518Z,3.12
2022-12-29T07:49:14.024Z,3.17
2022-12-29T07:51:41.224Z,3.22
2022-12-29T07:54:08.536Z,3.24
2022-12-29T07:56:35.617Z,3.29
2022-12-29T07:59:02.856Z,3.39
2022-12-29T08:01:30.179Z,3.42
2022-12-29T08:03:58.001Z,3.42
2022-12-29T08:06:25.346Z,3.49
2022-12-29T08:08:52.698Z,3.53
2022-12-29T08:11:19.935Z,3.61
2022-12-29T08:13:47.095Z,3.68
2022-12-29T08:16:14.283Z,3.75
2022-12-29T08:18:41.695Z,3.82
2022-12-29T08:21:08.936Z,3.89
2022-12-29T08:23:36.105Z,3.99
2022-12-29T08:26:06.075Z,4.06
2022-12-29T08:28:34.310Z,4.18
2022-12-29T08:31:02.885Z,4.26
2022-12-29T08:33:30.863Z,4.36
2022-12-29T08:36:05.868Z,4.46
2022-12-29T08:38:33.818Z,4.55
2022-12-29T08:41:02.367Z,4.65
2022-12-29T08:43:29.977Z,4.73
2022-12-29T08:45:59.368Z,4.81
2022-12-29T08:48:28.174Z,4.90
2022-12-29T08:50:55.656Z,4.98
2022-12-29T08:53:22.900Z,5.09
2022-12-29T08:56:04.625Z,5.17
2022-12-29T08:58:41.976Z,5.23
2022-12-29T09:01:11.098Z,5.33
2022-12-29T09:04:13.075Z,5.32
2022-12-29T09:06:26.388Z,5.42
2022-12-29T09:08:55.935Z,5.50
2022-12-29T09:11:26.025Z,5.62
2022-12-29T09:13:54.097Z,5.73
2022-12-29T09:16:23.391Z,5.83
2022-12-29T09:18:51.859Z,5.97
2022-12-29T09:21:19.295Z,6.11
2022-12-29T09:23:46.664Z,6.28
2022-12-29T09:26:14.020Z,6.47
2022-12-29T09:28:41.544Z,6.68
2022-12-29T09:31:09.024Z,6.85
2022-12-29T09:33:36.175Z,7.11
2022-12-29T09:36:03.862Z,7.27
2022-12-29T09:38:31.901Z,7.48
2022-12-29T09:41:08.223Z,7.75
2022-12-29T09:43:44.217Z,7.97
2022-12-29T09:46:50.137Z,8.20
2022-12-29T09:49:47.378Z,8.44
2022-12-29T09:52:31.096Z,8.71
2022-12-29T09:55:15.899Z,9.06
2022-12-29T09:58:19.862Z,9.31
2022-12-29T10:00:55.356Z,9.59
2022-12-29T10:03:25.573Z,9.75
2022-12-29T10:06:16.939Z,10.09
2022-12-29T10:09:08.864Z,10.29
2022-12-29T10:11:47.623Z,10.45
2022-12-29T10:14:30.817Z,10.70
2022-12-29T10:17:49.936Z,10.71
2022-12-29T10:20:30.296Z,10.81
2022-12-29T10:23:30.936Z,11.01
2022-12-29T10:25:59.819Z,11.25
2022-12-29T10:28:41.871Z,11.58
2022-12-29T10:31:23.039Z,11.64
2022-12-29T10:33:57.668Z,11.81
2022-12-29T10:36:42.176Z,11.97
2022-12-29T10:39:27.975Z,12.13
2022-12-29T10:42:10.816Z,12.23
2022-12-29T10:44:38.500Z,12.31
2022-12-29T10:47:20.351Z,12.40
2022-12-29T10:49:49.425Z,12.66
2022-12-29T10:52:19.020Z,12.93
2022-12-29T10:55:00.465Z,13.12
2022-12-29T10:57:33.737Z,13.49
2022-12-29T11:00:01.187Z,13.71
2022-12-29T11:02:40.654Z,13.87
2022-12-29T11:05:20.976Z,13.95
2022-12-29T11:07:50.819Z,14.17
2022-12-29T11:10:42.177Z,14.51
2022-12-29T11:13:16.626Z,14.65
2022-12-29T11:15:51.545Z,14.85
2022-12-29T11:18:29.056Z,14.99
2022-12-29T11:21:28.377Z,15.22
2022-12-29T11:24:01.616Z,15.54
2022-12-29T11:26:34.161Z,15.74
2022-12-29T11:29:28.460Z,15.95
2022-12-29T11:31:58.870Z,16.00
2022-12-29T11:34:36.714Z,16.06
2022-12-29T11:37:13.496Z,16.14
2022-12-29T11:39:44.217Z,16.19
2022-12-29T11:42:21.071Z,16.35
2022-12-29T11:44:50.821Z,16.34
2022-12-29T11:47:29.782Z,16.45
2022-12-29T11:50:04.229Z,16.51
2022-12-29T11:52:36.458Z,16.62
2022-12-29T11:55:06.859Z,16.72
2022-12-29T11:57:36.583Z,16.80
2022-12-29T12:00:17.828Z,16.95
2022-12-29T12:13:34.345Z,17.92
2022-12-29T12:16:20.130Z,18.46
2022-12-29T12:19:05.657Z,19.35
2022-12-29T12:21:45.980Z,20.30
2022-12-29T12:24:46.984Z,21.12
2022-12-29T12:27:25.776Z,22.25
2022-12-29T12:30:15.536Z,23.13
2022-12-29T12:33:12.696Z,23.62
2022-12-29T12:36:01.347Z,24.58
2022-12-29T12:38:42.660Z,24.97
2022-12-29T12:41:18.112Z,26.06
2022-12-29T12:44:10.699Z,26.79
2022-12-29T12:46:59.644Z,27.47
2022-12-29T12:49:35.656Z,28.06
2022-12-29T12:52:10.336Z,28.24
2022-12-29T12:54:58.536Z,28.22
2022-12-29T12:57:53.298Z,29.11
2022-12-29T13:00:24.471Z,29.28
2022-12-29T13:03:10.482Z,29.66
2022-12-29T13:06:06.660Z,30.05
2022-12-29T13:08:39.897Z,29.83
2022-12-29T13:11:16.018Z,30.21
2022-12-29T13:14:24.920Z,30.07
2022-12-29T13:17:00.815Z,29.94
2022-12-29T13:19:40.416Z,29.98
2022-12-29T13:22:22.824Z,30.16
2022-12-29T13:24:58.826Z,31.00
2022-12-29T13:27:50.936Z,30.59
2022-12-29T13:30:24.214Z,30.23
2022-12-29T13:33:21.169Z,29.05
2022-12-29T13:35:58.021Z,27.01
2022-12-29T13:38:27.901Z,26.22
2022-12-29T13:41:00.468Z,25.44
2022-12-29T13:43:31.310Z,23.74
2022-12-29T13:46:09.686Z,22.42
2022-12-29T13:49:16.343Z,21.47
2022-12-29T13:51:57.498Z,20.68
2022-12-29T13:54:36.018Z,19.75
2022-12-29T13:57:16.301Z,19.18
2022-12-29T14:00:00.455Z,18.54
2022-12-29T14:02:27.668Z,17.92
2022-12-29T14:05:04.576Z,17.37
2022-12-29T14:07:38.898Z,17.01
2022-12-29T14:10:06.944Z,16.72
2022-12-29T14:12:42.994Z,16.43
2022-12-29T14:15:13.041Z,16.10
2022-12-29T14:18:03.113Z,15.82
2022-12-29T14:20:30.866Z,15.63
2022-12-29T14:23:30.945Z,15.36
2022-12-29T14:26:12.866Z,15.15
2022-12-29T14:28:53.417Z,14.86
2022-12-29T14:31:20.769Z,14.65
2022-12-29T14:34:12.479Z,14.40
2022-12-29T14:36:42.021Z,14.32
2022-12-29T14:39:33.178Z,14.08
2022-12-29T14:42:08.547Z,13.89
2022-12-29T14:44:53.703Z,13.73
2022-12-29T14:47:32.977Z,13.51
2022-12-29T14:50:25.577Z,13.29
2022-12-29T14:53:03.798Z,13.13
2022-12-29T14:55:51.179Z,12.98
2022-12-29T14:58:33.534Z,12.75
2022-12-29T15:01:01.848Z,12.53
2022-12-29T15:03:39.696Z,12.30
2022-12-29T15:06:18.099Z,12.08
2022-12-29T15:08:53.939Z,11.84
2022-12-29T15:11:22.636Z,11.63
2022-12-29T15:13:50.943Z,11.43
2022-12-29T15:16:38.156Z,11.20
2022-12-29T15:19:06.500Z,11.04
2022-12-29T15:21:36.668Z,10.87
2022-12-29T15:24:05.233Z,10.65
2022-12-29T15:26:45.621Z,10.44
2022-12-29T15:29:51.778Z,10.33
2022-12-29T15:32:28.937Z,10.21
2022-12-29T15:35:01.338Z,10.10
2022-12-29T15:37:35.016Z,10.06
2022-12-29T15:40:02.975Z,10.03
2022-12-29T15:42:48.739Z,9.94
2022-12-29T15:45:16.822Z,9.82
2022-12-29T15:47:47.912Z,9.66
2022-12-29T15:50:29.900Z,9.50
2022-12-29T15:52:58.737Z,9.38
2022-12-29T15:55:26.018Z,9.23
2022-12-29T15:57:58.818Z,9.13
2022-12-29T16:00:32.442Z,9.02
2022-12-29T16:03:02.542Z,8.90
2022-12-29T16:05:35.380Z,8.79
2022-12-29T16:08:03.712Z,8.67
2022-12-29T16:10:37.305Z,8.54
2022-12-29T16:13:26.709Z,8.43
2022-12-29T16:16:00.421Z,8.32
2022-12-29T16:18:36.661Z,8.26
2022-12-29T16:21:06.579Z,8.20
2022-12-29T16:23:37.343Z,8.18
2022-12-29T16:26:09.137Z,8.14
2022-12-29T16:28:45.064Z,8.06
2022-12-29T16:31:49.099Z,8.01
2022-12-29T16:34:27.185Z,7.88
2022-12-29T16:37:02.619Z,7.83
2022-12-29T16:39:42.893Z,7.81
2022-12-29T16:42:51.700Z,7.78
2022-12-29T16:45:24.975Z,7.77
2022-12-29T16:48:07.153Z,7.73
2022-12-29T16:50:40.179Z,7.75
2022-12-29T16:53:19.827Z,7.73
2022-12-29T16:55:51.351Z,7.69
2022-12-29T16:58:29.098Z,7.67
2022-12-29T17:00:57.669Z,7.61
2022-12-29T17:03:34.901Z,7.57
2022-12-29T17:06:02.297Z,7.54
2022-12-29T17:08:29.498Z,7.49
2022-12-29T17:11:16.629Z,7.46
2022-12-29T17:13:43.819Z,7.37
2022-12-29T17:16:12.969Z,7.32
2022-12-29T17:18:40.340Z,7.22
2022-12-29T17:21:07.659Z,7.12
2022-12-29T17:23:35.530Z,7.09
2022-12-29T17:26:03.106Z,7.06
2022-12-29T17:28:33.101Z,6.98
2022-12-29T17:31:04.387Z,6.88
2022-12-29T17:33:37.139Z,6.85
2022-12-29T17:36:04.663Z,6.77
2022-12-29T17:38:35.634Z,6.61
2022-12-29T17:41:02.908Z,6.54
2022-12-29T17:43:36.487Z,6.51
2022-12-29T17:46:07.780Z,6.50
2022-12-29T17:48:35.876Z,6.49
2022-12-29T17:51:03.295Z,6.42
2022-12-29T17:53:31.060Z,6.38
2022-12-29T17:55:58.544Z,6.35
2022-12-29T17:58:31.947Z,6.35
2022-12-29T18:01:01.415Z,6.33
2022-12-29T18:03:32.461Z,6.34
2022-12-29T18:06:00.153Z,6.35
2022-12-29T18:08:28.939Z,6.37
2022-12-29T18:10:56.349Z,6.40
2022-12-29T18:13:30.297Z,6.42
2022-12-29T18:16:03.291Z,6.47
2022-12-29T18:18:30.577Z,6.53
2022-12-29T18:21:00.459Z,6.57
2022-12-29T18:23:35.371Z,6.61
2022-12-29T18:26:28.353Z,6.59
2022-12-29T18:28:57.232Z,6.59
2022-12-29T18:31:30.819Z,6.52
2022-12-29T18:34:00.062Z,6.49
2022-12-29T18:36:28.176Z,6.46
2022-12-29T18:38:55.938Z,6.42
2022-12-29T18:41:25.743Z,6.32
2022-12-29T18:43:53.226Z,6.38
2022-12-29T18:46:23.133Z,6.37
2022-12-29T18:48:52.134Z,6.38
2022-12-29T18:51:22.419Z,6.42
2022-12-29T18:53:50.043Z,6.44
2022-12-29T18:56:17.220Z,6.47
2022-12-29T18:58:44.507Z,6.42
2022-12-29T19:01:38.172Z,6.45
2022-12-29T19:04:05.538Z,6.47
2022-12-29T19:06:32.655Z,6.44
2022-12-29T19:08:59.937Z,6.45
2022-12-29T19:11:27.178Z,6.45
2022-12-29T19:13:54.420Z,6.35
2022-12-29T19:16:25.278Z,6.33
2022-12-29T19:19:08.343Z,6.21
2022-12-29T19:21:37.983Z,6.19
2022-12-29T19:24:05.232Z,6.13
2022-12-29T19:26:36.900Z,6.11
2022-12-29T19:29:06.179Z,6.11
2022-12-29T19:31:33.804Z,6.12
2022-12-29T19:34:03.306Z,6.12
2022-12-29T19:36:30.657Z,6.05
2022-12-29T19:38:58.107Z,6.03
2022-12-29T19:41:25.386Z,6.01
2022-12-29T19:43:52.539Z,6.00
2022-12-29T19:46:20.679Z,5.92
2022-12-29T19:48:48.025Z,5.92
2022-12-29T19:51:17.534Z,5.86
2022-12-29T19:53:46.151Z,5.86
2022-12-29T19:56:14.676Z,5.88
2022-12-29T19:58:46.954Z,5.92
2022-12-29T20:01:23.109Z,5.95
2022-12-29T20:03:51.306Z,5.96
2022-12-29T20:06:19.444Z,5.98
2022-12-29T20:08:46.494Z,5.99
2022-12-29T20:11:17.526Z,5.96
2022-12-29T20:13:45.832Z,5.92
2022-12-29T20:16:22.159Z,5.89
2022-12-29T20:18:49.588Z,5.89
2022-12-29T20:21:25.068Z,5.91
2022-12-29T20:23:53.673Z,5.94
2022-12-29T20:26:27.126Z,5.94
2022-12-29T20:28:58.433Z,5.93
2022-12-29T20:31:29.875Z,5.94
2022-12-29T20:33:57.299Z,5.96
2022-12-29T20:36:28.798Z,6.03
2022-12-29T20:38:58.536Z,6.10
2022-12-29T20:41:26.419Z,6.16
2022-12-29T20:43:54.578Z,6.21
2022-12-29T20:46:25.228Z,6.19
2022-12-29T20:48:55.822Z,6.17
2022-12-29T20:51:23.059Z,6.12
2022-12-29T20:53:50.418Z,6.02
2022-12-29T20:56:22.390Z,5.95
2022-12-29T20:59:25.819Z,5.85
2022-12-29T21:01:37.810Z,5.70
2022-12-29T21:04:05.936Z,5.61
2022-12-29T21:06:33.659Z,5.49
2022-12-29T21:09:01.223Z,5.41
2022-12-29T21:11:29.058Z,5.37
2022-12-29T21:13:59.353Z,5.28
2022-12-29T21:16:28.924Z,5.18
2022-12-29T21:18:56.227Z,5.13
2022-12-29T21:21:25.713Z,5.08
2022-12-29T21:23:53.575Z,5.01
2022-12-29T21:26:23.094Z,5.02
2022-12-29T21:28:51.340Z,5.03
2022-12-29T21:31:48.299Z,5.01
2022-12-29T21:34:15.666Z,5.04
2022-12-29T21:36:42.818Z,5.07
2022-12-29T21:39:10.144Z,5.05
2022-12-29T21:41:37.218Z,5.03
2022-12-29T21:44:23.499Z,5.00
2022-12-29T21:46:50.753Z,4.99
2022-12-29T21:49:17.938Z,5.05
2022-12-29T21:51:51.202Z,5.12
2022-12-29T21:54:42.664Z,5.20
2022-12-29T21:57:10.585Z,5.26
2022-12-29T21:59:56.750Z,5.37
2022-12-29T22:02:46.590Z,5.46
2022-12-29T22:05:34.740Z,5.52
2022-12-29T22:08:20.897Z,5.55
2022-12-29T22:11:07.611Z,5.50
2022-12-29T22:13:36.852Z,5.51
2022-12-29T22:16:09.424Z,5.49
2022-12-29T22:18:37.258Z,5.49
2022-12-29T22:21:10.246Z,5.42
2022-12-29T22:23:38.510Z,5.36
2022-12-29T22:26:07.697Z,5.31
2022-12-29T22:28:40.678Z,5.18
2022-12-29T22:31:21.972Z,5.07
2022-12-29T22:33:49.219Z,5.03
2022-12-29T22:36:16.459Z,5.00
2022-12-29T22:38:43.618Z,4.98
2022-12-29T22:41:10.781Z,4.97
2022-12-29T22:43:38.063Z,4.93
2022-12-29T22:46:07.960Z,4.92
2022-12-29T22:48:36.257Z,4.83
2022-12-29T22:51:03.695Z,4.78
2022-12-29T22:53:31.082Z,4.78
2022-12-29T22:56:02.857Z,4.84
2022-12-29T22:58:30.053Z,4.86
2022-12-29T23:00:57.215Z,4.89
2022-12-29T23:03:24.761Z,4.94
2022-12-29T23:06:02.946Z,4.93
2022-12-29T23:08:32.833Z,4.88
2022-12-29T23:11:00.626Z,4.82
2022-12-29T23:13:28.278Z,4.78
2022-12-29T23:15:55.918Z,4.76
2022-12-29T23:18:23.425Z,4.69
2022-12-29T23:20:50.939Z,4.73
2022-12-29T23:23:46.463Z,4.72
2022-12-29T23:26:16.473Z,4.75
2022-12-29T23:28:43.702Z,4.81
2022-12-29T23:31:11.216Z,4.83
2022-12-29T23:33:38.631Z,4.92
2022-12-29T23:36:06.302Z,4.88
2022-12-29T23:38:33.897Z,4.81
2022-12-29T23:41:01.293Z,4.76
2022-12-29T23:43:28.502Z,4.79
2022-12-29T23:45:56.057Z,4.78
2022-12-29T23:48:23.383Z,4.75
2022-12-29T23:50:51.299Z,4.77
2022-12-29T23:53:18.388Z,4.76
2022-12-29T23:55:52.421Z,4.79
2022-12-29T23:58:19.576Z,4.76
